Time;durP1;ratioP1;P1;durP2;ratioP2;P2;SDS_P1;SDS_P2;PMS_P1;PMS_P2;Temp;Humidity;BMP_temperature;BMP_pressure;BME280_temperature;BME280_humidity;BME280_pressure;Samples;Min_cycle;Max_cycle;Signal;HPM_P1;HPM_P2
2023/04/05 00:00:08;;;;;;;31.53;18.60;;;17.90;41.70;;;;;;5075941;28;20534;-85
2023/04/05 00:02:39;;;;;;;29.77;18.97;;;17.80;41.60;;;;;;5098948;28;20454;-85
2023/04/05 00:05:10;;;;;;;27.60;18.10;;;17.80;41.70;;;;;;5075025;28;20481;-85
2023/04/05 00:07:39;;;;;;;30.17;16.70;;;17.80;41.60;;;;;;5073458;28;20564;-84
2023/04/05 00:10:08;;;;;;;28.83;17.30;;;17.80;41.70;;;;;;5073147;28;20476;-86
2023/04/05 00:12:36;;;;;;;28.00;17.50;;;17.80;41.70;;;;;;5081837;28;20467;-85
2023/04/05 00:15:04;;;;;;;24.60;16.10;;;17.70;41.60;;;;;;5084601;28;20470;-85
2023/04/05 00:17:32;;;;;;;24.50;14.80;;;17.70;41.60;;;;;;5079258;28;20450;-86
2023/04/05 00:20:06;;;;;;;22.17;14.20;;;17.70;41.70;;;;;;5095434;28;20433;-85
2023/04/05 00:22:37;;;;;;;22.87;14.37;;;17.60;41.80;;;;;;5097695;28;20445;-84
2023/04/05 00:25:05;;;;;;;24.60;14.33;;;17.60;41.60;;;;;;5079909;28;20449;-83
2023/04/05 00:27:34;;;;;;;23.00;14.50;;;17.60;41.70;;;;;;5077125;28;20446;-84
2023/04/05 00:30:02;;;;;;;18.80;12.60;;;17.50;41.80;;;;;;5080100;28;20456;-86
2023/04/05 00:32:30;;;;;;;18.60;12.37;;;17.50;41.80;;;;;;5096495;28;20441;-85
2023/04/05 00:34:59;;;;;;;17.23;12.20;;;17.50;42.00;;;;;;5074759;28;20480;-86
2023/04/05 00:37:27;;;;;;;20.90;13.40;;;17.50;41.70;;;;;;5092471;28;20552;-86
2023/04/05 00:39:57;;;;;;;18.37;11.60;;;17.50;41.80;;;;;;5073663;28;20537;-86
2023/04/05 00:42:25;;;;;;;19.80;12.37;;;17.40;41.80;;;;;;5079028;28;20448;-86
2023/04/05 00:44:54;;;;;;;18.23;12.03;;;17.40;41.80;;;;;;5078389;28;20452;-86
2023/04/05 00:47:22;;;;;;;16.03;10.23;;;17.40;41.80;;;;;;5085702;28;20454;-85
2023/04/05 00:49:51;;;;;;;17.93;10.83;;;17.40;41.80;;;;;;5090812;28;20470;-86
2023/04/05 00:52:22;;;;;;;15.63;10.33;;;17.40;41.80;;;;;;5075022;28;20516;-86
2023/04/05 00:54:50;;;;;;;20.13;10.57;;;17.30;41.80;;;;;;5086159;28;20473;-85
2023/04/05 00:57:20;;;;;;;15.77;10.23;;;17.30;42.00;;;;;;5075548;28;20450;-84
2023/04/05 00:59:48;;;;;;;15.20;8.83;;;17.20;42.00;;;;;;5056893;28;20536;-84
2023/04/05 01:02:18;;;;;;;15.10;9.63;;;17.20;42.00;;;;;;5071877;28;20434;-83
2023/04/05 01:04:48;;;;;;;16.33;9.00;;;17.20;42.00;;;;;;5086854;28;20451;-85
2023/04/05 01:07:20;;;;;;;16.20;8.67;;;17.10;42.00;;;;;;5086450;28;20950;-85
2023/04/05 01:09:53;;;;;;;12.03;7.37;;;17.20;42.00;;;;;;5064677;28;20480;-85
2023/04/05 01:12:23;;;;;;;10.00;7.40;;;17.10;42.10;;;;;;5077179;28;20513;-85
2023/04/05 01:14:52;;;;;;;9.33;7.30;;;17.10;42.20;;;;;;5076896;28;20493;-85
2023/04/05 01:17:21;;;;;;;10.30;8.10;;;17.10;42.00;;;;;;5077123;28;20538;-87
2023/04/05 01:19:52;;;;;;;10.73;7.63;;;17.00;42.00;;;;;;5077863;28;20507;-86
2023/04/05 01:22:50;;;;;;;12.50;7.60;;;17.00;42.10;;;;;;5077746;28;20445;-86
2023/04/05 01:25:29;;;;;;;8.53;6.70;;;17.00;42.10;;;;;;5078960;28;20468;-86
2023/04/05 01:28:13;;;;;;;9.40;6.57;;;16.90;42.10;;;;;;5074533;28;20477;-86
2023/04/05 01:30:43;;;;;;;12.17;7.20;;;16.90;42.20;;;;;;5082738;28;20456;-86
2023/04/05 01:33:14;;;;;;;10.00;6.17;;;16.90;42.10;;;;;;5085735;28;20453;-84
2023/04/05 01:35:47;;;;;;;10.60;6.60;;;16.90;42.60;;;;;;5083680;28;20467;-85
2023/04/05 01:38:18;;;;;;;13.60;6.80;;;16.90;42.20;;;;;;5083127;28;20473;-85
2023/04/05 01:40:46;;;;;;;7.27;5.90;;;16.90;42.20;;;;;;5075765;28;20521;-85
2023/04/05 01:43:14;;;;;;;8.27;6.40;;;16.80;42.10;;;;;;5084568;28;20449;-85
2023/04/05 01:45:45;;;;;;;9.13;5.70;;;16.80;42.20;;;;;;5081466;28;20549;-85
2023/04/05 01:48:13;;;;;;;8.47;5.83;;;16.80;42.10;;;;;;5083865;28;20487;-84
2023/04/05 01:50:41;;;;;;;7.00;5.43;;;16.80;42.20;;;;;;5083060;28;20460;-85
2023/04/05 01:53:10;;;;;;;8.20;5.87;;;16.70;42.10;;;;;;5083599;28;20452;-85
2023/04/05 01:55:38;;;;;;;7.90;5.53;;;16.70;42.30;;;;;;5083780;28;20497;-85
2023/04/05 01:58:07;;;;;;;8.37;5.27;;;16.70;42.30;;;;;;5085165;28;20454;-85
2023/04/05 02:00:35;;;;;;;6.10;4.83;;;16.60;42.30;;;;;;5078435;28;20513;-85
2023/04/05 02:03:05;;;;;;;5.37;4.87;;;16.60;42.30;;;;;;5080452;28;20456;-86
2023/04/05 02:05:34;;;;;;;6.90;4.93;;;16.60;42.40;;;;;;5082730;28;20450;-85
2023/04/05 02:08:02;;;;;;;5.67;4.90;;;16.50;42.30;;;;;;5086299;28;20556;-85
2023/04/05 02:10:30;;;;;;;6.47;5.03;;;16.50;42.50;;;;;;5082430;28;20468;-85
2023/04/05 02:12:59;;;;;;;6.23;4.87;;;16.50;42.40;;;;;;5083050;28;20454;-85
2023/04/05 02:15:27;;;;;;;5.40;4.20;;;16.50;42.40;;;;;;5081151;28;20537;-85
2023/04/05 02:17:55;;;;;;;6.70;4.60;;;16.50;42.50;;;;;;5083801;28;20457;-85
2023/04/05 02:20:25;;;;;;;4.70;4.30;;;16.50;42.50;;;;;;5079811;28;20934;-85
2023/04/05 02:22:53;;;;;;;5.70;4.20;;;16.40;42.30;;;;;;5081566;28;20472;-85
2023/04/05 02:25:21;;;;;;;4.37;3.90;;;16.40;42.40;;;;;;5078130;28;20445;-85
2023/04/05 02:27:49;;;;;;;6.30;4.17;;;16.40;42.50;;;;;;5074100;28;20469;-84
2023/04/05 02:30:17;;;;;;;6.80;4.10;;;16.30;42.50;;;;;;5082820;28;20446;-85
2023/04/05 02:32:45;;;;;;;5.47;4.53;;;16.30;42.60;;;;;;5080856;28;20517;-85
2023/04/05 02:35:16;;;;;;;3.70;3.33;;;16.30;42.70;;;;;;5080541;28;20468;-85
2023/04/05 02:37:45;;;;;;;4.10;3.70;;;16.30;42.50;;;;;;5081564;28;20593;-85
2023/04/05 02:40:14;;;;;;;3.90;3.50;;;16.20;42.40;;;;;;5074949;28;20450;-85
2023/04/05 02:42:42;;;;;;;4.80;3.90;;;16.20;42.50;;;;;;5079838;28;20477;-85
2023/04/05 02:45:11;;;;;;;4.10;3.70;;;16.20;42.60;;;;;;5079385;28;20541;-85
2023/04/05 02:47:39;;;;;;;4.77;3.97;;;16.20;42.60;;;;;;5081168;28;20517;-85
2023/04/05 02:50:08;;;;;;;3.60;3.30;;;16.20;42.60;;;;;;5083357;28;20459;-84
2023/04/05 02:52:36;;;;;;;5.07;3.90;;;16.10;42.70;;;;;;5082020;28;20462;-84
2023/04/05 02:55:06;;;;;;;4.57;3.30;;;16.10;42.50;;;;;;5094998;28;20451;-85
2023/04/05 02:57:34;;;;;;;5.40;3.53;;;16.10;42.60;;;;;;5082073;28;20473;-86
2023/04/05 03:00:03;;;;;;;5.73;3.73;;;16.10;42.70;;;;;;5089952;28;20441;-86
2023/04/05 03:02:31;;;;;;;3.90;3.47;;;16.00;42.60;;;;;;5089125;28;20440;-86
2023/04/05 03:05:01;;;;;;;5.83;3.60;;;16.00;42.70;;;;;;5087089;28;20475;-84
2023/04/05 03:07:29;;;;;;;3.50;3.20;;;16.00;42.80;;;;;;5094247;28;20434;-85
2023/04/05 03:09:57;;;;;;;5.37;3.97;;;16.00;42.60;;;;;;5083154;28;20472;-84
2023/04/05 03:12:26;;;;;;;4.13;3.53;;;16.00;43.30;;;;;;5067323;28;20553;-85
2023/04/05 03:14:55;;;;;;;4.00;3.40;;;15.90;42.60;;;;;;5077236;28;20476;-85
2023/04/05 03:17:23;;;;;;;3.83;3.10;;;15.90;42.60;;;;;;5081025;28;20462;-84
2023/04/05 03:19:51;;;;;;;3.50;3.00;;;15.90;43.30;;;;;;5072909;28;20473;-85
2023/04/05 03:22:20;;;;;;;6.23;3.40;;;15.90;42.70;;;;;;5075533;28;20454;-84
2023/04/05 03:24:51;;;;;;;5.10;3.27;;;15.90;42.70;;;;;;5080375;28;20473;-86
2023/04/05 03:27:22;;;;;;;2.93;2.73;;;15.80;42.70;;;;;;5078144;28;20461;-85
2023/04/05 03:29:51;;;;;;;5.20;3.10;;;15.80;42.90;;;;;;5081891;28;20453;-85
2023/04/05 03:32:19;;;;;;;3.53;3.20;;;15.80;42.90;;;;;;5083185;28;20506;-85
2023/04/05 03:34:47;;;;;;;3.40;3.10;;;15.80;42.90;;;;;;5076695;28;20485;-84
2023/04/05 03:37:16;;;;;;;3.13;2.80;;;15.70;42.80;;;;;;5081512;28;20469;-86
2023/04/05 03:39:44;;;;;;;4.43;2.87;;;15.70;42.80;;;;;;5074999;28;20521;-86
2023/04/05 03:42:14;;;;;;;2.90;2.53;;;15.70;42.90;;;;;;5082594;28;20441;-86
2023/04/05 03:44:42;;;;;;;3.70;3.13;;;15.70;42.80;;;;;;5074828;28;20451;-86
2023/04/05 03:47:12;;;;;;;2.73;2.43;;;15.70;42.70;;;;;;5080827;28;20457;-86
2023/04/05 03:49:41;;;;;;;2.70;2.50;;;15.70;42.90;;;;;;5078835;28;20483;-86
2023/04/05 03:52:09;;;;;;;3.07;2.77;;;15.60;43.00;;;;;;5083730;28;20521;-86
2023/04/05 03:54:39;;;;;;;3.30;3.00;;;15.60;43.00;;;;;;5079109;28;20465;-86
2023/04/05 03:57:08;;;;;;;3.20;2.87;;;15.60;42.90;;;;;;5082182;28;20503;-86
2023/04/05 03:59:36;;;;;;;2.23;2.10;;;15.60;42.90;;;;;;5081017;28;20533;-86
2023/04/05 04:02:04;;;;;;;2.83;2.63;;;15.60;42.90;;;;;;5082227;28;20465;-87
2023/04/05 04:04:33;;;;;;;2.73;2.53;;;15.60;42.80;;;;;;5073935;28;20470;-87
2023/04/05 04:07:01;;;;;;;3.67;2.47;;;15.50;42.80;;;;;;5082212;28;20513;-86
2023/04/05 04:09:29;;;;;;;2.90;2.70;;;15.50;43.00;;;;;;5077801;28;20469;-86
2023/04/05 04:11:57;;;;;;;5.00;2.50;;;15.50;43.00;;;;;;5079945;28;20484;-85
2023/04/05 04:14:26;;;;;;;3.10;2.60;;;15.50;42.90;;;;;;5078811;28;20456;-85
2023/04/05 04:16:54;;;;;;;2.37;2.20;;;15.50;43.00;;;;;;5078759;28;20489;-87
2023/04/05 04:19:23;;;;;;;2.87;2.57;;;15.50;43.00;;;;;;5076831;28;20560;-85
2023/04/05 04:21:54;;;;;;;2.40;2.20;;;15.40;42.90;;;;;;5080304;28;20442;-85
2023/04/05 04:24:25;;;;;;;2.60;2.40;;;15.40;43.00;;;;;;5079973;28;20448;-86
2023/04/05 04:26:53;;;;;;;3.60;2.77;;;15.40;43.10;;;;;;5078738;28;20456;-85
2023/04/05 04:29:32;;;;;;;2.60;2.43;;;15.40;43.00;;;;;;5075437;28;20553;-84
2023/04/05 04:32:00;;;;;;;2.80;2.57;;;15.30;43.00;;;;;;5077191;28;20449;-85
2023/04/05 04:34:29;;;;;;;2.60;2.13;;;15.30;43.00;;;;;;5077670;28;20465;-85
2023/04/05 04:37:00;;;;;;;2.13;2.03;;;15.30;42.90;;;;;;5081001;28;20473;-85
2023/04/05 04:39:30;;;;;;;3.53;2.07;;;15.30;43.00;;;;;;5090440;28;21055;-85
2023/04/05 04:42:00;;;;;;;3.57;2.33;;;15.20;43.00;;;;;;5080065;28;20449;-86
2023/04/05 04:44:30;;;;;;;3.30;2.20;;;15.20;43.00;;;;;;5088457;28;20445;-85
2023/04/05 04:46:58;;;;;;;3.00;2.70;;;15.20;43.20;;;;;;5078590;28;20449;-84
2023/04/05 04:49:27;;;;;;;2.40;2.30;;;15.20;43.00;;;;;;5083878;28;20524;-83
2023/04/05 04:51:57;;;;;;;2.23;2.13;;;15.20;43.30;;;;;;5077882;28;20454;-85
2023/04/05 04:54:28;;;;;;;4.13;2.90;;;15.20;43.10;;;;;;5078167;28;20460;-84
2023/04/05 04:56:56;;;;;;;2.90;2.27;;;15.20;43.20;;;;;;5092345;28;20461;-85
2023/04/05 04:59:25;;;;;;;2.50;2.30;;;15.20;43.20;;;;;;5095153;28;20545;-85
2023/04/05 05:01:53;;;;;;;2.60;2.50;;;15.20;43.10;;;;;;5094910;28;20429;-85
2023/04/05 05:04:21;;;;;;;2.40;2.20;;;15.20;43.00;;;;;;5081141;28;20520;-85
2023/04/05 05:06:51;;;;;;;2.60;2.40;;;15.10;43.20;;;;;;5092513;28;20471;-85
2023/04/05 05:09:19;;;;;;;3.43;2.60;;;15.20;43.20;;;;;;5077262;28;20549;-85
2023/04/05 05:11:49;;;;;;;2.67;2.47;;;15.10;43.00;;;;;;5078349;28;20450;-85
2023/04/05 05:14:17;;;;;;;2.57;2.37;;;15.10;43.00;;;;;;5080805;28;20450;-84
2023/04/05 05:16:46;;;;;;;2.30;2.20;;;15.10;43.10;;;;;;5081984;28;20517;-84
2023/04/05 05:19:14;;;;;;;2.60;2.40;;;15.10;42.90;;;;;;5080669;28;20465;-84
2023/04/05 05:21:42;;;;;;;2.33;2.20;;;15.00;43.10;;;;;;5079057;28;20508;-85
2023/04/05 05:24:13;;;;;;;2.43;2.23;;;15.00;43.20;;;;;;5082467;28;20476;-83
2023/04/05 05:26:41;;;;;;;2.37;2.17;;;15.00;43.10;;;;;;5079882;28;20453;-84
2023/04/05 05:29:10;;;;;;;1.87;1.77;;;15.00;43.10;;;;;;5083114;28;20465;-84
2023/04/05 05:31:38;;;;;;;2.63;2.20;;;15.00;43.60;;;;;;5082236;28;20480;-84
2023/04/05 05:34:07;;;;;;;2.70;2.10;;;15.00;43.20;;;;;;5081018;28;20453;-84
2023/04/05 05:36:36;;;;;;;8.00;2.73;;;15.00;43.10;;;;;;5076969;28;20487;-84
2023/04/05 05:39:05;;;;;;;2.40;2.20;;;15.10;43.20;;;;;;5077830;28;20473;-84
2023/04/05 05:41:33;;;;;;;5.27;2.50;;;15.10;43.10;;;;;;5077922;28;20480;-84
2023/04/05 05:44:01;;;;;;;2.17;2.07;;;15.00;43.20;;;;;;5067241;28;20525;-84
2023/04/05 05:46:30;;;;;;;2.30;2.20;;;15.00;43.10;;;;;;5076067;28;20484;-84
2023/04/05 05:48:59;;;;;;;2.43;2.23;;;15.00;43.10;;;;;;5081028;28;20457;-84
2023/04/05 05:51:27;;;;;;;3.63;2.27;;;15.00;43.20;;;;;;5079283;28;20466;-84
2023/04/05 05:53:55;;;;;;;2.23;2.00;;;15.00;43.30;;;;;;5085895;28;20452;-85
2023/04/05 05:56:23;;;;;;;2.60;2.40;;;15.10;43.20;;;;;;5079085;28;20531;-85
2023/04/05 05:58:51;;;;;;;2.43;2.23;;;15.10;43.10;;;;;;5081536;28;20549;-84
2023/04/05 06:01:21;;;;;;;3.13;2.40;;;15.10;43.20;;;;;;5072810;28;20441;-85
2023/04/05 06:03:53;;;;;;;3.10;2.20;;;15.10;43.20;;;;;;5081283;28;20448;-84
2023/04/05 06:06:22;;;;;;;2.53;2.33;;;15.10;43.90;;;;;;5081266;28;20515;-85
2023/04/05 06:08:50;;;;;;;2.27;2.07;;;15.10;43.20;;;;;;5074333;28;20459;-85
2023/04/05 06:11:20;;;;;;;2.90;2.20;;;15.20;43.20;;;;;;5083479;28;20465;-85
2023/04/05 06:13:49;;;;;;;3.77;2.33;;;15.20;43.20;;;;;;5091161;28;20445;-85
2023/04/05 06:16:17;;;;;;;2.20;2.10;;;15.20;43.20;;;;;;5071205;28;20450;-84
2023/04/05 06:18:45;;;;;;;2.80;2.10;;;15.20;43.20;;;;;;5078743;28;20476;-85
2023/04/05 06:21:15;;;;;;;2.43;2.23;;;15.30;43.20;;;;;;5081391;28;20568;-85
2023/04/05 06:23:43;;;;;;;2.40;2.27;;;15.30;43.10;;;;;;5076886;28;20449;-84
2023/04/05 06:26:17;;;;;;;3.60;2.60;;;15.30;43.30;;;;;;5079954;28;20442;-85
2023/04/05 06:28:46;;;;;;;2.10;2.00;;;15.40;43.10;;;;;;5081172;28;20445;-85
2023/04/05 06:31:16;;;;;;;4.07;2.30;;;15.40;43.20;;;;;;5079806;28;20450;-83
2023/04/05 06:33:44;;;;;;;2.50;2.30;;;15.40;43.30;;;;;;5080641;28;20533;-84
2023/04/05 06:36:12;;;;;;;2.40;2.20;;;15.40;43.20;;;;;;5081404;28;20480;-84
2023/04/05 06:38:41;;;;;;;2.97;2.67;;;15.50;43.30;;;;;;5079154;28;20482;-84
2023/04/05 06:41:09;;;;;;;2.80;2.10;;;15.50;43.40;;;;;;5081134;28;20449;-85
2023/04/05 06:43:37;;;;;;;2.90;2.40;;;15.60;43.40;;;;;;5079713;28;20529;-82
2023/04/05 06:46:07;;;;;;;2.90;2.00;;;15.60;43.30;;;;;;5072958;28;20480;-85
2023/04/05 06:48:35;;;;;;;2.23;2.03;;;15.70;43.50;;;;;;5077701;28;20557;-84
2023/04/05 06:51:04;;;;;;;3.27;2.33;;;15.70;43.40;;;;;;5068933;28;20457;-84
2023/04/05 06:53:32;;;;;;;3.53;2.27;;;15.70;43.70;;;;;;5080338;28;20441;-84
2023/04/05 06:56:02;;;;;;;2.63;2.10;;;15.80;43.60;;;;;;5075674;28;20484;-85
2023/04/05 06:58:30;;;;;;;2.10;2.00;;;15.80;43.80;;;;;;5081290;28;20476;-85
2023/04/05 07:00:59;;;;;;;2.90;2.47;;;15.80;43.60;;;;;;5081001;28;20452;-84
2023/04/05 07:03:27;;;;;;;1.73;1.63;;;15.90;43.60;;;;;;5080888;28;20461;-85
2023/04/05 07:05:57;;;;;;;2.27;2.17;;;16.00;43.70;;;;;;5079804;28;20452;-84
2023/04/05 07:08:26;;;;;;;2.13;2.00;;;16.00;43.50;;;;;;5078669;28;20484;-85
2023/04/05 07:10:54;;;;;;;2.13;1.80;;;16.10;43.70;;;;;;5080476;28;20460;-83
2023/04/05 07:13:24;;;;;;;2.30;2.17;;;16.10;43.60;;;;;;5078164;28;20480;-84
2023/04/05 07:15:52;;;;;;;3.20;2.50;;;16.20;43.70;;;;;;5079687;28;20526;-84
2023/04/05 07:18:21;;;;;;;2.50;2.20;;;16.20;43.70;;;;;;5081410;28;20537;-83
2023/04/05 07:20:49;;;;;;;3.87;2.30;;;16.30;43.80;;;;;;5080316;28;20453;-84
2023/04/05 07:23:17;;;;;;;5.23;2.33;;;16.40;43.50;;;;;;5080581;28;20509;-84
2023/04/05 07:25:48;;;;;;;5.27;2.20;;;16.40;43.50;;;;;;5077041;28;20454;-84
2023/04/05 07:28:16;;;;;;;2.40;2.20;;;16.50;43.70;;;;;;5085842;28;20488;-84
2023/04/05 07:30:46;;;;;;;5.27;2.63;;;16.50;43.80;;;;;;5087884;28;20492;-84
2023/04/05 07:33:15;;;;;;;4.20;2.30;;;16.60;43.60;;;;;;5074322;28;20517;-84
2023/04/05 07:35:43;;;;;;;2.17;1.93;;;16.70;43.80;;;;;;5072829;28;20450;-84
2023/04/05 07:38:11;;;;;;;2.07;1.97;;;16.70;43.60;;;;;;5076105;28;20477;-83
2023/04/05 07:40:40;;;;;;;2.20;2.00;;;16.80;43.80;;;;;;5079429;28;20457;-83
2023/04/05 07:43:08;;;;;;;2.83;2.33;;;16.90;43.80;;;;;;5078417;28;20480;-84
2023/04/05 07:45:36;;;;;;;2.10;2.00;;;17.00;43.80;;;;;;5082222;28;20445;-84
2023/04/05 07:48:06;;;;;;;2.13;2.03;;;17.00;43.70;;;;;;5079535;28;20473;-83
2023/04/05 07:50:35;;;;;;;4.70;1.97;;;17.10;43.60;;;;;;5078076;28;20457;-84
2023/04/05 07:53:03;;;;;;;3.57;2.00;;;17.20;43.70;;;;;;5080365;28;20456;-84
2023/04/05 07:55:31;;;;;;;3.77;2.30;;;17.20;43.70;;;;;;5074486;28;20464;-85
2023/04/05 07:57:59;;;;;;;2.50;2.03;;;17.30;43.60;;;;;;5078529;28;20552;-83
2023/04/05 08:00:27;;;;;;;4.23;2.20;;;17.40;43.80;;;;;;5078897;28;20454;-85
2023/04/05 08:02:56;;;;;;;6.23;2.10;;;17.50;43.80;;;;;;5082551;28;20445;-85
2023/04/05 08:05:30;;;;;;;3.00;2.33;;;17.60;43.90;;;;;;5081415;28;20525;-85
2023/04/05 08:07:58;;;;;;;2.37;2.17;;;17.70;43.90;;;;;;5079917;28;20495;-84
2023/04/05 08:10:27;;;;;;;2.17;2.00;;;17.80;44.00;;;;;;5081120;28;20524;-84
2023/04/05 08:12:55;;;;;;;3.70;2.10;;;18.00;44.00;;;;;;5077948;28;20492;-84
2023/04/05 08:15:23;;;;;;;3.97;2.00;;;18.10;43.90;;;;;;5080903;28;20457;-84
2023/04/05 08:17:52;;;;;;;8.73;2.40;;;18.30;44.00;;;;;;5079428;28;20469;-84
2023/04/05 08:20:20;;;;;;;7.20;2.00;;;18.50;44.00;;;;;;5078194;28;20492;-85
2023/04/05 08:22:49;;;;;;;4.80;2.23;;;18.60;44.00;;;;;;5077608;28;20449;-85
2023/04/05 08:25:17;;;;;;;5.30;2.20;;;18.80;44.00;;;;;;5076675;28;20526;-85
2023/04/05 08:27:46;;;;;;;5.83;2.37;;;19.00;44.10;;;;;;5070858;28;20541;-85
2023/04/05 08:30:15;;;;;;;2.40;2.20;;;19.20;44.10;;;;;;5076287;28;20497;-85
2023/04/05 08:32:43;;;;;;;3.47;1.90;;;19.40;44.00;;;;;;5077454;28;20465;-84
2023/04/05 08:35:11;;;;;;;1.83;1.73;;;19.60;44.00;;;;;;5079459;28;20449;-85
2023/04/05 08:37:39;;;;;;;2.40;2.20;;;19.80;43.80;;;;;;5079024;28;20462;-84
2023/04/05 08:40:18;;;;;;;3.63;2.43;;;20.00;43.90;;;;;;5080237;28;20474;-85
2023/04/05 08:42:46;;;;;;;5.33;3.50;;;20.20;43.80;;;;;;5080331;28;20532;-86
2023/04/05 08:45:15;;;;;;;13.77;4.20;;;20.30;40.40;;;;;;5076609;28;20474;-85
2023/04/05 08:47:45;;;;;;;4.70;3.77;;;19.70;38.20;;;;;;5073053;28;20581;-81
2023/04/05 08:50:13;;;;;;;6.97;4.60;;;19.30;33.00;;;;;;5079327;28;20449;-79
2023/04/05 08:52:42;;;;;;;7.20;3.93;;;18.40;31.30;;;;;;5073986;28;20445;-80
2023/04/05 08:55:11;;;;;;;6.67;4.10;;;19.20;36.00;;;;;;5076006;28;20452;-80
2023/04/05 08:57:39;;;;;;;8.83;3.47;;;19.90;35.40;;;;;;5076264;28;20456;-80
2023/04/05 09:00:10;;;;;;;13.63;3.47;;;20.50;34.90;;;;;;5078961;28;20480;-80
2023/04/05 09:02:38;;;;;;;5.67;3.10;;;20.90;34.60;;;;;;5077041;28;20461;-80
2023/04/05 09:05:09;;;;;;;7.40;2.90;;;21.30;34.60;;;;;;5076542;28;20515;-80
2023/04/05 09:07:37;;;;;;;6.93;2.87;;;21.60;34.40;;;;;;5080222;28;20453;-79
2023/04/05 09:10:06;;;;;;;8.70;3.50;;;21.90;34.40;;;;;;5079894;28;20450;-80
2023/04/05 09:12:37;;;;;;;5.43;2.30;;;22.20;34.40;;;;;;5085919;28;20471;-80
2023/04/05 09:15:06;;;;;;;4.33;2.53;;;22.40;34.40;;;;;;5087494;28;20450;-79
2023/04/05 09:17:34;;;;;;;3.37;2.10;;;22.60;34.30;;;;;;5084854;28;20539;-80
2023/04/05 09:20:02;;;;;;;3.77;2.33;;;22.80;34.30;;;;;;5093195;28;20492;-80
2023/04/05 09:22:30;;;;;;;2.10;1.90;;;23.10;34.30;;;;;;5076946;28;20449;-80
2023/04/05 09:25:00;;;;;;;2.57;2.20;;;23.20;34.20;;;;;;5079007;28;20472;-80
2023/04/05 09:27:28;;;;;;;3.60;2.17;;;23.50;34.40;;;;;;5072770;28;20549;-79
2023/04/05 09:29:57;;;;;;;5.33;2.37;;;23.60;34.20;;;;;;5074251;28;20452;-79
2023/04/05 09:32:27;;;;;;;3.10;2.00;;;23.80;34.20;;;;;;5073783;28;20537;-78
2023/04/05 09:34:55;;;;;;;9.10;2.10;;;24.00;34.10;;;;;;5072946;28;20461;-79
2023/04/05 09:37:23;;;;;;;2.77;2.13;;;24.10;34.10;;;;;;5075090;28;20541;-78
2023/04/05 09:39:52;;;;;;;5.77;2.20;;;24.30;34.10;;;;;;5071214;28;20543;-79
2023/04/05 09:42:22;;;;;;;1.97;1.87;;;24.40;34.10;;;;;;5075126;28;20450;-80
2023/04/05 09:44:52;;;;;;;3.70;1.90;;;24.60;33.90;;;;;;5073862;28;20480;-79
2023/04/05 09:47:22;;;;;;;3.00;1.93;;;24.80;33.80;;;;;;5074079;28;20457;-79
2023/04/05 09:49:50;;;;;;;3.93;2.20;;;25.00;33.60;;;;;;5075742;28;20514;-79
2023/04/05 09:52:19;;;;;;;2.50;1.80;;;25.20;33.60;;;;;;5075731;28;20502;-79
2023/04/05 09:54:48;;;;;;;2.57;2.33;;;25.30;33.30;;;;;;5074716;28;20445;-81
2023/04/05 09:57:16;;;;;;;6.60;2.10;;;25.40;33.10;;;;;;5069054;28;20424;-79
2023/04/05 09:59:45;;;;;;;4.93;2.10;;;25.60;33.00;;;;;;5072039;28;20454;-79
2023/04/05 10:02:13;;;;;;;1.80;1.70;;;25.60;32.80;;;;;;5077235;28;20491;-79
2023/04/05 10:04:44;;;;;;;3.93;2.00;;;25.50;32.30;;;;;;5076691;28;20432;-80
2023/04/05 10:07:13;;;;;;;2.10;2.00;;;25.40;32.60;;;;;;5076000;28;20421;-79
2023/04/05 10:09:42;;;;;;;2.80;2.10;;;25.50;32.90;;;;;;5075225;28;20432;-79
2023/04/05 10:12:12;;;;;;;3.37;1.97;;;25.70;32.90;;;;;;5077129;28;20451;-79
2023/04/05 10:14:41;;;;;;;3.27;2.67;;;25.90;32.50;;;;;;5074751;28;20449;-80
2023/04/05 10:17:11;;;;;;;5.43;2.27;;;26.00;31.90;;;;;;5077123;28;20500;-81
2023/04/05 10:19:51;;;;;;;2.30;2.10;;;26.10;31.70;;;;;;5070353;28;20502;-80
2023/04/05 10:22:23;;;;;;;3.13;2.40;;;26.30;31.70;;;;;;5074644;28;20423;-80
2023/04/05 10:24:52;;;;;;;3.27;2.20;;;26.30;31.20;;;;;;5073829;28;20454;-77
2023/04/05 10:27:23;;;;;;;5.57;2.40;;;26.30;31.40;;;;;;5070514;28;20499;-79
2023/04/05 10:29:58;;;;;;;4.23;2.20;;;26.40;31.60;;;;;;5074681;28;20442;-79
2023/04/05 10:32:30;;;;;;;5.13;2.27;;;26.50;31.40;;;;;;5075700;28;20408;-79
2023/04/05 10:35:04;;;;;;;2.30;2.00;;;26.50;31.40;;;;;;5076501;28;20479;-80
2023/04/05 10:37:39;;;;;;;2.37;1.93;;;26.60;31.60;;;;;;5066849;28;20552;-80
2023/04/05 10:40:09;;;;;;;4.40;2.33;;;26.70;31.50;;;;;;5071711;28;20451;-80
2023/04/05 10:42:40;;;;;;;9.93;1.97;;;26.90;31.30;;;;;;5074781;28;20549;-80
2023/04/05 10:45:10;;;;;;;4.00;2.30;;;27.10;31.30;;;;;;5076617;28;20416;-79
2023/04/05 10:47:42;;;;;;;11.80;2.57;;;27.20;31.10;;;;;;5075165;28;20469;-79
2023/04/05 10:50:14;;;;;;;5.37;2.17;;;27.30;30.80;;;;;;5071870;28;20508;-78
2023/04/05 10:52:42;;;;;;;3.80;2.23;;;27.50;30.90;;;;;;5071578;28;20420;-78
2023/04/05 10:55:11;;;;;;;1.67;1.57;;;27.60;30.60;;;;;;5068424;28;20835;-78
2023/04/05 10:57:39;;;;;;;3.87;2.13;;;27.70;30.40;;;;;;5068949;28;20440;-78
2023/04/05 11:00:08;;;;;;;3.60;1.67;;;27.80;30.60;;;;;;5064242;28;20445;-78
2023/04/05 11:02:36;;;;;;;12.33;2.90;;;27.80;30.20;;;;;;5071437;28;20446;-78
2023/04/05 11:05:05;;;;;;;4.93;1.93;;;27.80;30.10;;;;;;5075061;28;20421;-77
2023/04/05 11:07:44;;;;;;;4.40;2.10;;;27.80;30.40;;;;;;5069736;28;20449;-77
2023/04/05 11:10:16;;;;;;;3.43;1.83;;;27.80;30.30;;;;;;5074561;28;20438;-79
2023/04/05 11:13:06;;;;;;;5.93;2.13;;;27.80;30.20;;;;;;5061624;28;20481;-80
2023/04/05 11:15:35;;;;;;;5.40;2.50;;;28.00;30.20;;;;;;5071382;28;20436;-79
2023/04/05 11:18:04;;;;;;;5.03;2.63;;;28.00;29.80;;;;;;5074044;28;20480;-77
2023/04/05 11:20:50;;;;;;;5.27;2.83;;;28.20;30.20;;;;;;5073598;28;20575;-79
2023/04/05 11:23:20;;;;;;;12.53;3.70;;;29.90;29.10;;;;;;5074699;28;20464;-77
2023/04/05 11:25:53;;;;;;;19.17;4.20;;;31.40;27.90;;;;;;5074360;28;20424;-79
2023/04/05 11:28:24;;;;;;;8.10;3.33;;;32.30;26.00;;;;;;5073352;28;20476;-78
2023/04/05 11:30:57;;;;;;;9.37;3.80;;;31.40;26.10;;;;;;5071646;28;20449;-78
2023/04/05 11:33:39;;;;;;;9.27;3.17;;;32.30;26.70;;;;;;5072963;28;20933;-78
2023/04/05 11:36:08;;;;;;;10.17;2.67;;;33.50;25.60;;;;;;5068945;28;20455;-78
2023/04/05 11:38:39;;;;;;;10.50;2.73;;;34.70;24.00;;;;;;5065538;28;20465;-78
2023/04/05 11:41:12;;;;;;;4.10;2.27;;;35.70;23.30;;;;;;5076210;28;20469;-79
2023/04/05 11:43:41;;;;;;;3.50;2.47;;;36.40;22.30;;;;;;5090791;28;20457;-78
2023/04/05 11:46:09;;;;;;;4.30;2.10;;;37.30;21.80;;;;;;5083817;28;20453;-77
2023/04/05 11:48:37;;;;;;;5.80;2.37;;;38.10;21.50;;;;;;5065691;28;20460;-79
2023/04/05 11:51:08;;;;;;;3.70;1.80;;;38.70;20.70;;;;;;5079665;28;20517;-76
2023/04/05 11:53:37;;;;;;;2.80;2.00;;;37.80;19.60;;;;;;5082754;28;20437;-77
2023/04/05 11:56:09;;;;;;;5.13;2.70;;;35.90;20.70;;;;;;5085989;28;20430;-78
2023/04/05 11:58:36;;;;;;;2.73;1.90;;;34.20;21.70;;;;;;5078368;28;20474;-79
2023/04/05 12:01:06;;;;;;;9.40;2.70;;;33.50;23.10;;;;;;5076946;28;20482;-78
2023/04/05 12:03:34;;;;;;;4.80;1.90;;;34.90;23.30;;;;;;5073942;28;20958;-77
2023/04/05 12:06:03;;;;;;;4.33;2.00;;;36.50;21.50;;;;;;5076437;28;20470;-77
2023/04/05 12:08:40;;;;;;;3.83;1.70;;;37.40;20.50;;;;;;5071016;28;20993;-76
2023/04/05 12:11:10;;;;;;;1.70;1.60;;;38.20;20.30;;;;;;5072292;28;20449;-78
2023/04/05 12:13:38;;;;;;;2.43;1.60;;;38.80;19.10;;;;;;5079627;28;20579;-78
2023/04/05 12:16:08;;;;;;;1.57;1.47;;;37.70;19.80;;;;;;5071658;28;20529;-78
2023/04/05 12:18:36;;;;;;;1.23;1.23;;;38.60;19.90;;;;;;5072127;28;20900;-78
2023/04/05 12:21:05;;;;;;;1.97;1.37;;;39.40;19.50;;;;;;5075777;28;20473;-79
2023/04/05 12:23:36;;;;;;;1.20;1.20;;;39.90;18.70;;;;;;5073171;28;20478;-79
2023/04/05 12:26:06;;;;;;;3.33;1.60;;;40.40;18.20;;;;;;5080858;28;20449;-79
2023/04/05 12:28:50;;;;;;;1.77;1.50;;;40.60;18.10;;;;;;5076567;28;20499;-80
2023/04/05 12:31:18;;;;;;;1.53;1.43;;;41.10;18.40;;;;;;5075068;28;20460;-78
2023/04/05 12:33:46;;;;;;;1.30;1.30;;;41.50;17.90;;;;;;5062586;28;20472;-79
2023/04/05 12:36:14;;;;;;;2.80;1.67;;;40.60;17.60;;;;;;5059213;28;20464;-79
2023/04/05 12:38:42;;;;;;;5.90;1.77;;;38.90;18.40;;;;;;5069377;28;20478;-80
2023/04/05 12:41:12;;;;;;;1.80;1.70;;;37.20;19.80;;;;;;5074298;28;20516;-78
2023/04/05 12:43:40;;;;;;;1.40;1.40;;;38.20;20.00;;;;;;5075297;28;20460;-78
2023/04/05 12:46:11;;;;;;;5.30;1.50;;;39.20;19.60;;;;;;5078190;28;20438;-79
2023/04/05 12:48:39;;;;;;;1.80;1.40;;;39.90;19.10;;;;;;5077367;28;20463;-78
2023/04/05 12:51:14;;;;;;;2.03;1.93;;;40.50;18.80;;;;;;5071211;28;20437;-78
2023/04/05 12:53:45;;;;;;;1.37;1.27;;;40.70;18.60;;;;;;5075397;28;20447;-79
2023/04/05 12:56:14;;;;;;;1.30;1.20;;;41.10;18.40;;;;;;5071887;28;20441;-78